Al Cenac — WDD5445 — position and weather

sailwx.info

Track history (hours):
 
Tides and Currents Weather Stations Pressure Air Temp Water Temp Dewpoint Dewpoint Depression Visibility Wind Speed Wind Dir Waves Ship Positions

Al Cenac

Owner: Caillou Island Towing Co, Inc., Houma, LA. More information available from US FCC via Universal Licensing System and Coast Guard Vessel Documentation Center.

Last reported at 2014-Nov-26 03:29 UTC. Time now 2014-Nov-26 04:14 UTC.
Position N 40°39' W 074°05'.

; draft 10 m.

MMSI: 367158530.

Date/timePositionNaut miles runAvg speedWind from/ knotsBaromVisibWave heightAir tempDewpointWater temp
2014-Nov-26 03:29N 40°39' W 074°05'1 1.2
2014-Nov-26 02:33N 40°39' W 074°06'1 0.6
2014-Nov-26 00:31N 40°38' W 074°08'0 0.0
2014-Nov-25 23:32N 40°38' W 074°08'1 0.4
2014-Nov-25 20:33N 40°39' W 074°09'2 1.9
2014-Nov-25 19:32N 40°38' W 074°12'3 0.9
2014-Nov-25 16:15N 40°38' W 074°08'0 0.0
2014-Nov-25 15:10N 40°38' W 074°08'3 5.0
2014-Nov-25 14:32N 40°40' W 074°04'3 2.3
2014-Nov-25 13:25N 40°39' W 074°07'0 0.0
2014-Nov-25 12:31N 40°39' W 074°07'1 0.2
2014-Nov-25 08:29N 40°38' W 074°08'0 0.0
2014-Nov-25 05:24N 40°39' W 074°08'3 0.9
2014-Nov-25 02:08N 40°38' W 074°12'4 7.4
2014-Nov-25 01:33N 40°39' W 074°06'5 4.6
2014-Nov-25 00:33N 40°40' W 074°00'7 6.5
2014-Nov-24 23:33N 40°39' W 074°09'3 2.7
2014-Nov-24 22:26N 40°42' W 074°08'0 0.1
2014-Nov-24 21:29N 40°42' W 074°08'3 0.4
2014-Nov-24 14:20N 40°38' W 074°08'0 0.0
2014-Nov-24 11:31N 40°38' W 074°08'0 0.0
2014-Nov-24 04:32N 40°38' W 074°08'3 3.0
2014-Nov-24 03:31N 40°42' W 074°08'1 1.1
2014-Nov-24 02:33N 40°40' W 074°08'2 0.8
2014-Nov-24 00:08N 40°38' W 074°08'0 0.0
2014-Nov-23 23:25N 40°38' W 074°08'0 0.0
2014-Nov-23 22:32N 40°38' W 074°08'0 0.0
2014-Nov-23 18:29N 40°38' W 074°08'0 0.0
2014-Nov-23 17:06N 40°38' W 074°08'0 0.0
2014-Nov-23 16:18N 40°38' W 074°08'3 1.5
2014-Nov-23 14:33N 40°39' W 074°11'7 6.0
2014-Nov-23 13:23N 40°32' W 074°15'7 3.2
2014-Nov-23 11:14N 40°39' W 074°11'3 3.2
2014-Nov-23 10:23N 40°38' W 074°08'0 0.0
2014-Nov-23 00:33N 40°39' W 074°08'3 0.8
2014-Nov-22 21:11N 40°38' W 074°12'3 0.4
2014-Nov-22 14:07N 40°38' W 074°08'4 7.5
2014-Nov-22 13:33N 40°40' W 074°03'6 5.0
2014-Nov-22 12:19N 40°46' W 074°00'0 0.0
2014-Nov-22 10:28N 40°46' W 074°00'8 8.3
2014-Nov-22 09:33N 40°39' W 074°04'3 0.2
2014-Nov-21 21:11N 40°38' W 074°08'0 0.0
2014-Nov-21 17:31N 40°38' W 074°08'1 1.5
2014-Nov-21 16:33N 40°39' W 074°06'5 4.3
2014-Nov-21 15:30N 40°38' W 074°12'4 1.2
2014-Nov-21 12:28N 40°39' W 074°07'0 0.1
2014-Nov-21 11:22N 40°39' W 074°07'1 0.7
2014-Nov-21 10:24N 40°38' W 074°08'0 0.0
2014-Nov-21 09:31N 40°38' W 074°08'0 0.0
2014-Nov-21 08:32N 40°38' W 074°08'0 0.0
2014-Nov-21 07:08N 40°38' W 074°08'2 0.3
2014-Nov-21 00:29N 40°39' W 074°10'2 0.4
2014-Nov-20 19:14N 40°39' W 074°08'0 0.5
2014-Nov-20 18:19N 40°39' W 074°07'0 0.2
2014-Nov-20 17:31N 40°39' W 074°07'0 0.1
2014-Nov-20 16:33N 40°39' W 074°07'0 0.0
2014-Nov-20 15:33N 40°39' W 074°07'0 0.0
2014-Nov-20 14:31N 40°39' W 074°07'4 3.8
2014-Nov-20 13:33N 40°38' W 074°12'0 0.3
2014-Nov-20 12:31N 40°38' W 074°12'0 0.0
2014-Nov-20 11:32N 40°38' W 074°12'0 0.0
2014-Nov-20 10:33N 40°38' W 074°12'2 1.1
2014-Nov-20 08:33N 40°39' W 074°09'5 5.0
2014-Nov-20 07:33N 40°39' W 074°03'7 6.9
2014-Nov-20 06:31N 40°38' W 074°12'2 0.2
2014-Nov-19 21:33N 40°39' W 074°10'2 0.5
2014-Nov-19 18:08N 40°39' W 074°08'4 6.0
2014-Nov-19 17:28N 40°36' W 074°12'2 1.2
2014-Nov-19 16:04N 40°38' W 074°12'3 1.3
2014-Nov-19 13:33N 40°39' W 074°08'5 4.9
2014-Nov-19 12:33N 40°39' W 074°01'1 1.1
2014-Nov-19 11:31N 40°40' W 074°00'0 0.0
2014-Nov-19 10:31N 40°40' W 074°00'0 0.0
2014-Nov-19 09:32N 40°40' W 074°00'0 0.0
2014-Nov-19 08:33N 40°40' W 074°00'0 0.0
2014-Nov-19 07:33N 40°40' W 074°00'0 0.0
2014-Nov-19 06:31N 40°40' W 074°00'0 0.0
2014-Nov-19 05:32N 40°40' W 074°00'0 0.0
2014-Nov-19 04:32N 40°40' W 074°00'0 0.0
2014-Nov-19 03:33N 40°40' W 074°00'0 0.0
2014-Nov-19 02:34N 40°40' W 074°00'0 0.0
2014-Nov-19 01:31N 40°40' W 074°00'0 0.0
2014-Nov-19 00:32N 40°40' W 074°00'1 1.4
2014-Nov-18 23:33N 40°41' W 074°00'3 3.3
2014-Nov-18 22:33N 40°44' W 074°01'5 1.0
2014-Nov-18 17:15N 40°49' W 073°58'4 6.4
2014-Nov-18 16:33N 40°45' W 074°01'6 6.5
2014-Nov-18 15:33N 40°39' W 074°04'1 1.5
2014-Nov-18 14:33N 40°40' W 074°03'0 0.2
2014-Nov-18 13:33N 40°40' W 074°02'0 0.1
2014-Nov-18 12:31N 40°40' W 074°02'1 1.1
2014-Nov-18 11:33N 40°40' W 074°04'1 1.1
2014-Nov-18 10:31N 40°39' W 074°05'0 0.4
2014-Nov-18 09:32N 40°39' W 074°05'1 0.2
2014-Nov-18 02:11N 40°39' W 074°07'4 5.9
2014-Nov-18 01:33N 40°40' W 074°02'1 0.6
2014-Nov-18 00:33N 40°40' W 074°02'0 0.0
2014-Nov-17 23:31N 40°40' W 074°02'0 0.1
2014-Nov-17 22:31N 40°40' W 074°02'4 3.9
2014-Nov-17 21:34N 40°39' W 074°06'0 0.2
2014-Nov-17 20:33N 40°39' W 074°06'1 1.4
2014-Nov-17 19:32N 40°38' W 074°08'0 0.0
2014-Nov-17 18:33N 40°38' W 074°08'4 1.7
2014-Nov-17 16:17N 40°37' W 074°12'5 7.2
2014-Nov-17 15:33N 40°39' W 074°06'5 4.6
2014-Nov-17 14:33N 40°40' W 074°00'6 6.3
2014-Nov-17 13:33N 40°40' W 074°09'0 0.0
2014-Nov-17 10:33N 40°40' W 074°09'3 0.3
2014-Nov-17 00:32N 40°38' W 074°12'3 2.8
2014-Nov-16 23:29N 40°38' W 074°08'0 0.0
2014-Nov-16 22:06N 40°38' W 074°08'0 0.0
2014-Nov-16 20:29N 40°38' W 074°08'3 3.3
2014-Nov-16 19:33N 40°42' W 074°08'0 0.1
2014-Nov-16 18:33N 40°42' W 074°08'3 3.0
2014-Nov-16 17:32N 40°38' W 074°08'0 0.0
2014-Nov-16 16:33N 40°38' W 074°08'0 0.0
2014-Nov-16 14:30N 40°38' W 074°08'0 0.0
2014-Nov-16 12:25N 40°38' W 074°08'0 0.0
2014-Nov-16 11:32N 40°38' W 074°08'0 0.0
2014-Nov-16 10:26N 40°38' W 074°08'0 0.0
2014-Nov-16 09:33N 40°38' W 074°08'0 0.0
2014-Nov-16 08:34N 40°38' W 074°08'0 0.0
2014-Nov-16 07:28N 40°38' W 074°08'0 0.0
2014-Nov-16 06:29N 40°38' W 074°08'0 0.0
2014-Nov-16 04:24N 40°38' W 074°08'  
Track history (hours):
 
Tides and Currents Weather Stations Pressure Air Temp Water Temp Dewpoint Dewpoint Depression Visibility Wind Speed Wind Dir Waves Ship Positions

Al Cenac

Owner: Caillou Island Towing Co, Inc., Houma, LA. More information available from US FCC via Universal Licensing System and Coast Guard Vessel Documentation Center.

Last reported at 2014-Nov-26 03:29 UTC. Time now 2014-Nov-26 04:14 UTC.
Position N 40°39' W 074°05'.

; draft 10 m.

MMSI: 367158530.

Date/timePositionNaut miles runAvg speedWind from/ knotsBaromVisibWave heightAir tempDewpointWater temp
2014-Nov-26 03:29N 40°39' W 074°05'1 1.2
2014-Nov-26 02:33N 40°39' W 074°06'1 0.6
2014-Nov-26 00:31N 40°38' W 074°08'0 0.0
2014-Nov-25 23:32N 40°38' W 074°08'1 0.4
2014-Nov-25 20:33N 40°39' W 074°09'2 1.9
2014-Nov-25 19:32N 40°38' W 074°12'3 0.9
2014-Nov-25 16:15N 40°38' W 074°08'0 0.0
2014-Nov-25 15:10N 40°38' W 074°08'3 5.0
2014-Nov-25 14:32N 40°40' W 074°04'3 2.3
2014-Nov-25 13:25N 40°39' W 074°07'0 0.0
2014-Nov-25 12:31N 40°39' W 074°07'1 0.2
2014-Nov-25 08:29N 40°38' W 074°08'0 0.0
2014-Nov-25 05:24N 40°39' W 074°08'3 0.9
2014-Nov-25 02:08N 40°38' W 074°12'4 7.4
2014-Nov-25 01:33N 40°39' W 074°06'5 4.6
2014-Nov-25 00:33N 40°40' W 074°00'7 6.5
2014-Nov-24 23:33N 40°39' W 074°09'3 2.7
2014-Nov-24 22:26N 40°42' W 074°08'0 0.1
2014-Nov-24 21:29N 40°42' W 074°08'3 0.4
2014-Nov-24 14:20N 40°38' W 074°08'0 0.0
2014-Nov-24 11:31N 40°38' W 074°08'0 0.0
2014-Nov-24 04:32N 40°38' W 074°08'3 3.0
2014-Nov-24 03:31N 40°42' W 074°08'1 1.1
2014-Nov-24 02:33N 40°40' W 074°08'2 0.8
2014-Nov-24 00:08N 40°38' W 074°08'0 0.0
2014-Nov-23 23:25N 40°38' W 074°08'0 0.0
2014-Nov-23 22:32N 40°38' W 074°08'0 0.0
2014-Nov-23 18:29N 40°38' W 074°08'0 0.0
2014-Nov-23 17:06N 40°38' W 074°08'0 0.0
2014-Nov-23 16:18N 40°38' W 074°08'3 1.5
2014-Nov-23 14:33N 40°39' W 074°11'7 6.0
2014-Nov-23 13:23N 40°32' W 074°15'7 3.2
2014-Nov-23 11:14N 40°39' W 074°11'3 3.2
2014-Nov-23 10:23N 40°38' W 074°08'0 0.0
2014-Nov-23 00:33N 40°39' W 074°08'3 0.8
2014-Nov-22 21:11N 40°38' W 074°12'3 0.4
2014-Nov-22 14:07N 40°38' W 074°08'4 7.5
2014-Nov-22 13:33N 40°40' W 074°03'6 5.0
2014-Nov-22 12:19N 40°46' W 074°00'0 0.0
2014-Nov-22 10:28N 40°46' W 074°00'8 8.3
2014-Nov-22 09:33N 40°39' W 074°04'3 0.2
2014-Nov-21 21:11N 40°38' W 074°08'0 0.0
2014-Nov-21 17:31N 40°38' W 074°08'1 1.5
2014-Nov-21 16:33N 40°39' W 074°06'5 4.3
2014-Nov-21 15:30N 40°38' W 074°12'4 1.2
2014-Nov-21 12:28N 40°39' W 074°07'0 0.1
2014-Nov-21 11:22N 40°39' W 074°07'1 0.7
2014-Nov-21 10:24N 40°38' W 074°08'0 0.0
2014-Nov-21 09:31N 40°38' W 074°08'0 0.0
2014-Nov-21 08:32N 40°38' W 074°08'0 0.0
2014-Nov-21 07:08N 40°38' W 074°08'2 0.3
2014-Nov-21 00:29N 40°39' W 074°10'2 0.4
2014-Nov-20 19:14N 40°39' W 074°08'0 0.5
2014-Nov-20 18:19N 40°39' W 074°07'0 0.2
2014-Nov-20 17:31N 40°39' W 074°07'0 0.1
2014-Nov-20 16:33N 40°39' W 074°07'0 0.0
2014-Nov-20 15:33N 40°39' W 074°07'0 0.0
2014-Nov-20 14:31N 40°39' W 074°07'4 3.8
2014-Nov-20 13:33N 40°38' W 074°12'0 0.3
2014-Nov-20 12:31N 40°38' W 074°12'0 0.0
2014-Nov-20 11:32N 40°38' W 074°12'0 0.0
2014-Nov-20 10:33N 40°38' W 074°12'2 1.1
2014-Nov-20 08:33N 40°39' W 074°09'5 5.0
2014-Nov-20 07:33N 40°39' W 074°03'7 6.9
2014-Nov-20 06:31N 40°38' W 074°12'2 0.2
2014-Nov-19 21:33N 40°39' W 074°10'2 0.5
2014-Nov-19 18:08N 40°39' W 074°08'4 6.0
2014-Nov-19 17:28N 40°36' W 074°12'2 1.2
2014-Nov-19 16:04N 40°38' W 074°12'3 1.3
2014-Nov-19 13:33N 40°39' W 074°08'5 4.9
2014-Nov-19 12:33N 40°39' W 074°01'1 1.1
2014-Nov-19 11:31N 40°40' W 074°00'0 0.0
2014-Nov-19 10:31N 40°40' W 074°00'0 0.0
2014-Nov-19 09:32N 40°40' W 074°00'0 0.0
2014-Nov-19 08:33N 40°40' W 074°00'0 0.0
2014-Nov-19 07:33N 40°40' W 074°00'0 0.0
2014-Nov-19 06:31N 40°40' W 074°00'0 0.0
2014-Nov-19 05:32N 40°40' W 074°00'0 0.0
2014-Nov-19 04:32N 40°40' W 074°00'0 0.0
2014-Nov-19 03:33N 40°40' W 074°00'0 0.0
2014-Nov-19 02:34N 40°40' W 074°00'0 0.0
2014-Nov-19 01:31N 40°40' W 074°00'0 0.0
2014-Nov-19 00:32N 40°40' W 074°00'1 1.4
2014-Nov-18 23:33N 40°41' W 074°00'3 3.3
2014-Nov-18 22:33N 40°44' W 074°01'5 1.0
2014-Nov-18 17:15N 40°49' W 073°58'4 6.4
2014-Nov-18 16:33N 40°45' W 074°01'6 6.5
2014-Nov-18 15:33N 40°39' W 074°04'1 1.5
2014-Nov-18 14:33N 40°40' W 074°03'0 0.2
2014-Nov-18 13:33N 40°40' W 074°02'0 0.1
2014-Nov-18 12:31N 40°40' W 074°02'1 1.1
2014-Nov-18 11:33N 40°40' W 074°04'1 1.1
2014-Nov-18 10:31N 40°39' W 074°05'0 0.4
2014-Nov-18 09:32N 40°39' W 074°05'1 0.2
2014-Nov-18 02:11N 40°39' W 074°07'4 5.9
2014-Nov-18 01:33N 40°40' W 074°02'1 0.6
2014-Nov-18 00:33N 40°40' W 074°02'0 0.0
2014-Nov-17 23:31N 40°40' W 074°02'0 0.1
2014-Nov-17 22:31N 40°40' W 074°02'4 3.9
2014-Nov-17 21:34N 40°39' W 074°06'0 0.2
2014-Nov-17 20:33N 40°39' W 074°06'1 1.4
2014-Nov-17 19:32N 40°38' W 074°08'0 0.0
2014-Nov-17 18:33N 40°38' W 074°08'4 1.7
2014-Nov-17 16:17N 40°37' W 074°12'5 7.2
2014-Nov-17 15:33N 40°39' W 074°06'5 4.6
2014-Nov-17 14:33N 40°40' W 074°00'6 6.3
2014-Nov-17 13:33N 40°40' W 074°09'0 0.0
2014-Nov-17 10:33N 40°40' W 074°09'3 0.3
2014-Nov-17 00:32N 40°38' W 074°12'3 2.8
2014-Nov-16 23:29N 40°38' W 074°08'0 0.0
2014-Nov-16 22:06N 40°38' W 074°08'0 0.0
2014-Nov-16 20:29N 40°38' W 074°08'3 3.3
2014-Nov-16 19:33N 40°42' W 074°08'0 0.1
2014-Nov-16 18:33N 40°42' W 074°08'3 3.0
2014-Nov-16 17:32N 40°38' W 074°08'0 0.0
2014-Nov-16 16:33N 40°38' W 074°08'0 0.0
2014-Nov-16 14:30N 40°38' W 074°08'0 0.0
2014-Nov-16 12:25N 40°38' W 074°08'0 0.0
2014-Nov-16 11:32N 40°38' W 074°08'0 0.0
2014-Nov-16 10:26N 40°38' W 074°08'0 0.0
2014-Nov-16 09:33N 40°38' W 074°08'0 0.0
2014-Nov-16 08:34N 40°38' W 074°08'0 0.0
2014-Nov-16 07:28N 40°38' W 074°08'0 0.0
2014-Nov-16 06:29N 40°38' W 074°08'0 0.0
2014-Nov-16 04:24N 40°38' W 074°08'  

Dump ship's entire track history